Alcazar de San Juan, Spain
Current Conditions -  °F | °C
As of 1:00 PM on Sunday 21 Dec 2014 (Local Time) from LEAO Reporting Station
Clear Clear  
Wind Chill: 46°   Ceiling: Unl
Heat Index: 48°   Visibility: 6mi
Dew Point: 43°   Wind: 5mph
Humidity: 82%   Direction: 100°E
Pressure: 30.48"   Gusts: NA
Location:  39.39°N, 3.21°W
Report Text: LEAO 211200Z 10004KT 070V150 CAVOK 09/06 Q1032
Loading
Personal Weather Stations






























Interactive Weather Map New forecast layout! Learn more

10-Day Weather Forecast

Advertisements
Track Severe Weather on mobile